sensor_id;sensor_type;location;lat;lon;timestamp;pressure;altitude;pressure_sealevel;temperature;humidity
53011;BME280;42803;55.762;38.084;2023-03-04T00:00:11;97878.97;;;-3.09;100.00
53011;BME280;42803;55.762;38.084;2023-03-04T00:02:40;97883.88;;;-3.10;100.00
53011;BME280;42803;55.762;38.084;2023-03-04T00:05:10;97883.00;;;-3.11;100.00
53011;BME280;42803;55.762;38.084;2023-03-04T00:07:39;97884.97;;;-3.08;100.00
53011;BME280;42803;55.762;38.084;2023-03-04T00:10:09;97881.66;;;-3.07;100.00
53011;BME280;42803;55.762;38.084;2023-03-04T00:12:39;97880.00;;;-3.07;100.00
53011;BME280;42803;55.762;38.084;2023-03-04T00:15:09;97869.66;;;-3.08;100.00
53011;BME280;42803;55.762;38.084;2023-03-04T00:17:38;97863.66;;;-3.09;100.00
53011;BME280;42803;55.762;38.084;2023-03-04T00:20:09;97861.81;;;-3.10;100.00
53011;BME280;42803;55.762;38.084;2023-03-04T00:22:38;97859.25;;;-3.10;100.00
53011;BME280;42803;55.762;38.084;2023-03-04T00:25:07;97855.81;;;-3.10;100.00
53011;BME280;42803;55.762;38.084;2023-03-04T00:27:36;97854.59;;;-3.14;100.00
53011;BME280;42803;55.762;38.084;2023-03-04T00:30:06;97854.88;;;-3.20;100.00
53011;BME280;42803;55.762;38.084;2023-03-04T00:32:36;97849.47;;;-3.23;100.00
53011;BME280;42803;55.762;38.084;2023-03-04T00:35:06;97846.78;;;-3.24;100.00
53011;BME280;42803;55.762;38.084;2023-03-04T00:37:35;97836.25;;;-3.27;100.00
53011;BME280;42803;55.762;38.084;2023-03-04T00:40:05;97836.81;;;-3.30;100.00
53011;BME280;42803;55.762;38.084;2023-03-04T00:42:34;97833.06;;;-3.33;100.00
53011;BME280;42803;55.762;38.084;2023-03-04T00:45:05;97832.72;;;-3.36;100.00
53011;BME280;42803;55.762;38.084;2023-03-04T00:47:34;97828.25;;;-3.39;100.00
53011;BME280;42803;55.762;38.084;2023-03-04T00:50:05;97823.84;;;-3.40;100.00
53011;BME280;42803;55.762;38.084;2023-03-04T00:52:34;97821.16;;;-3.41;100.00
53011;BME280;42803;55.762;38.084;2023-03-04T00:55:04;97816.06;;;-3.41;100.00
53011;BME280;42803;55.762;38.084;2023-03-04T00:57:33;97824.47;;;-3.42;100.00
53011;BME280;42803;55.762;38.084;2023-03-04T01:00:03;97819.19;;;-3.44;100.00
53011;BME280;42803;55.762;38.084;2023-03-04T01:02:33;97816.63;;;-3.44;100.00
53011;BME280;42803;55.762;38.084;2023-03-04T01:05:04;97811.53;;;-3.44;100.00
53011;BME280;42803;55.762;38.084;2023-03-04T01:07:33;97802.84;;;-3.46;100.00
53011;BME280;42803;55.762;38.084;2023-03-04T01:10:03;97803.28;;;-3.50;100.00
53011;BME280;42803;55.762;38.084;2023-03-04T01:12:33;97806.25;;;-3.54;100.00
53011;BME280;42803;55.762;38.084;2023-03-04T01:15:02;97803.41;;;-3.57;100.00
53011;BME280;42803;55.762;38.084;2023-03-04T01:17:32;97798.72;;;-3.61;100.00
53011;BME280;42803;55.762;38.084;2023-03-04T01:20:01;97798.72;;;-3.61;100.00
53011;BME280;42803;55.762;38.084;2023-03-04T01:22:33;97795.28;;;-3.62;100.00
53011;BME280;42803;55.762;38.084;2023-03-04T01:25:02;97796.16;;;-3.61;100.00
53011;BME280;42803;55.762;38.084;2023-03-04T01:27:32;97791.06;;;-3.61;100.00
53011;BME280;42803;55.762;38.084;2023-03-04T01:30:01;97792.13;;;-3.59;100.00
53011;BME280;42803;55.762;38.084;2023-03-04T01:32:30;97792.44;;;-3.56;100.00
53011;BME280;42803;55.762;38.084;2023-03-04T01:35:00;97799.50;;;-3.54;100.00
53011;BME280;42803;55.762;38.084;2023-03-04T01:37:30;97788.56;;;-3.53;100.00
53011;BME280;42803;55.762;38.084;2023-03-04T01:40:00;97790.22;;;-3.53;100.00
53011;BME280;42803;55.762;38.084;2023-03-04T01:42:32;97799.66;;;-3.52;100.00
53011;BME280;42803;55.762;38.084;2023-03-04T01:45:02;97794.41;;;-3.54;100.00
53011;BME280;42803;55.762;38.084;2023-03-04T01:47:34;97790.78;;;-3.56;100.00
53011;BME280;42803;55.762;38.084;2023-03-04T01:50:06;97806.72;;;-3.50;100.00
53011;BME280;42803;55.762;38.084;2023-03-04T01:52:40;97793.69;;;-3.44;100.00
53011;BME280;42803;55.762;38.084;2023-03-04T01:55:15;97784.81;;;-3.48;100.00
53011;BME280;42803;55.762;38.084;2023-03-04T01:57:45;97797.44;;;-3.49;100.00
53011;BME280;42803;55.762;38.084;2023-03-04T02:00:27;97791.44;;;-3.50;100.00
53011;BME280;42803;55.762;38.084;2023-03-04T02:03:01;97792.00;;;-3.52;100.00
53011;BME280;42803;55.762;38.084;2023-03-04T02:05:35;97793.41;;;-3.47;100.00
53011;BME280;42803;55.762;38.084;2023-03-04T02:08:06;97790.25;;;-3.45;100.00
53011;BME280;42803;55.762;38.084;2023-03-04T02:10:38;97788.91;;;-3.41;100.00
53011;BME280;42803;55.762;38.084;2023-03-04T02:13:27;97779.47;;;-3.42;100.00
53011;BME280;42803;55.762;38.084;2023-03-04T02:15:57;97776.91;;;-3.42;100.00
53011;BME280;42803;55.762;38.084;2023-03-04T02:18:26;97771.50;;;-3.45;100.00
53011;BME280;42803;55.762;38.084;2023-03-04T02:21:02;97771.16;;;-3.48;100.00
53011;BME280;42803;55.762;38.084;2023-03-04T02:23:37;97763.53;;;-3.48;100.00
53011;BME280;42803;55.762;38.084;2023-03-04T02:26:14;97767.56;;;-3.50;100.00
53011;BME280;42803;55.762;38.084;2023-03-04T02:28:44;97759.97;;;-3.41;100.00
53011;BME280;42803;55.762;38.084;2023-03-04T02:31:22;97759.38;;;-3.39;100.00
53011;BME280;42803;55.762;38.084;2023-03-04T02:33:53;97750.66;;;-3.41;100.00
53011;BME280;42803;55.762;38.084;2023-03-04T02:36:23;97743.75;;;-3.42;100.00
53011;BME280;42803;55.762;38.084;2023-03-04T02:38:54;97739.09;;;-3.46;100.00
53011;BME280;42803;55.762;38.084;2023-03-04T02:41:28;97735.47;;;-3.48;100.00
53011;BME280;42803;55.762;38.084;2023-03-04T02:43:58;97732.59;;;-3.51;100.00
53011;BME280;42803;55.762;38.084;2023-03-04T02:46:27;97729.91;;;-3.53;100.00
53011;BME280;42803;55.762;38.084;2023-03-04T02:48:56;97731.88;;;-3.50;100.00
53011;BME280;42803;55.762;38.084;2023-03-04T02:51:27;97719.84;;;-3.51;100.00
53011;BME280;42803;55.762;38.084;2023-03-04T02:53:57;97719.69;;;-3.61;100.00
53011;BME280;42803;55.762;38.084;2023-03-04T02:56:27;97716.63;;;-3.75;100.00
53011;BME280;42803;55.762;38.084;2023-03-04T02:58:56;97719.41;;;-3.89;100.00
53011;BME280;42803;55.762;38.084;2023-03-04T03:01:27;97715.31;;;-3.96;100.00
53011;BME280;42803;55.762;38.084;2023-03-04T03:03:57;97711.34;;;-4.09;100.00
53011;BME280;42803;55.762;38.084;2023-03-04T03:06:26;97710.09;;;-4.22;100.00
53011;BME280;42803;55.762;38.084;2023-03-04T03:08:55;97709.44;;;-4.28;100.00
53011;BME280;42803;55.762;38.084;2023-03-04T03:11:27;97702.22;;;-4.32;100.00
53011;BME280;42803;55.762;38.084;2023-03-04T03:13:57;97702.53;;;-4.29;100.00
53011;BME280;42803;55.762;38.084;2023-03-04T03:16:26;97702.88;;;-4.26;100.00
53011;BME280;42803;55.762;38.084;2023-03-04T03:18:55;97695.97;;;-4.27;100.00
53011;BME280;42803;55.762;38.084;2023-03-04T03:21:25;97695.56;;;-4.23;100.00
53011;BME280;42803;55.762;38.084;2023-03-04T03:23:54;97687.47;;;-4.19;100.00
53011;BME280;42803;55.762;38.084;2023-03-04T03:26:23;97687.81;;;-4.15;100.00
53011;BME280;42803;55.762;38.084;2023-03-04T03:28:53;97690.97;;;-4.09;100.00
53011;BME280;42803;55.762;38.084;2023-03-04T03:31:22;97682.75;;;-4.07;100.00
53011;BME280;42803;55.762;38.084;2023-03-04T03:33:51;97672.66;;;-4.14;100.00
53011;BME280;42803;55.762;38.084;2023-03-04T03:36:20;97670.19;;;-4.30;100.00
53011;BME280;42803;55.762;38.084;2023-03-04T03:38:49;97666.09;;;-4.36;100.00
53011;BME280;42803;55.762;38.084;2023-03-04T03:41:18;97664.78;;;-4.33;100.00
53011;BME280;42803;55.762;38.084;2023-03-04T03:43:47;97670.41;;;-4.20;100.00
53011;BME280;42803;55.762;38.084;2023-03-04T03:46:18;97666.09;;;-4.12;100.00
53011;BME280;42803;55.762;38.084;2023-03-04T03:48:47;97664.34;;;-4.04;100.00
53011;BME280;42803;55.762;38.084;2023-03-04T03:51:16;97659.53;;;-4.01;100.00
53011;BME280;42803;55.762;38.084;2023-03-04T03:53:45;97670.34;;;-3.95;100.00
53011;BME280;42803;55.762;38.084;2023-03-04T03:56:14;97667.69;;;-3.88;100.00
53011;BME280;42803;55.762;38.084;2023-03-04T03:58:43;97668.00;;;-3.85;100.00
53011;BME280;42803;55.762;38.084;2023-03-04T04:01:12;97666.06;;;-3.79;100.00
53011;BME280;42803;55.762;38.084;2023-03-04T04:03:42;97660.50;;;-3.83;100.00
53011;BME280;42803;55.762;38.084;2023-03-04T04:06:11;97654.50;;;-3.84;100.00
53011;BME280;42803;55.762;38.084;2023-03-04T04:08:40;97652.28;;;-3.81;100.00
53011;BME280;42803;55.762;38.084;2023-03-04T04:11:09;97641.19;;;-3.81;100.00
53011;BME280;42803;55.762;38.084;2023-03-04T04:13:39;97644.63;;;-3.81;100.00
53011;BME280;42803;55.762;38.084;2023-03-04T04:16:08;97647.91;;;-3.82;100.00
53011;BME280;42803;55.762;38.084;2023-03-04T04:18:38;97640.13;;;-3.75;100.00
53011;BME280;42803;55.762;38.084;2023-03-04T04:21:08;97636.13;;;-3.73;100.00
53011;BME280;42803;55.762;38.084;2023-03-04T04:23:37;97631.34;;;-3.70;100.00
53011;BME280;42803;55.762;38.084;2023-03-04T04:26:06;97627.28;;;-3.68;100.00
53011;BME280;42803;55.762;38.084;2023-03-04T04:28:35;97624.44;;;-3.62;100.00
53011;BME280;42803;55.762;38.084;2023-03-04T04:31:06;97622.81;;;-3.61;100.00
53011;BME280;42803;55.762;38.084;2023-03-04T04:33:35;97624.00;;;-3.58;100.00
53011;BME280;42803;55.762;38.084;2023-03-04T04:36:05;97626.13;;;-3.54;100.00
53011;BME280;42803;55.762;38.084;2023-03-04T04:38:36;97624.16;;;-3.48;100.00
53011;BME280;42803;55.762;38.084;2023-03-04T04:41:05;97614.72;;;-3.40;100.00
53011;BME280;42803;55.762;38.084;2023-03-04T04:43:40;97612.94;;;-3.32;100.00
53011;BME280;42803;55.762;38.084;2023-03-04T04:46:09;97617.44;;;-3.30;100.00
53011;BME280;42803;55.762;38.084;2023-03-04T04:48:38;97619.41;;;-3.27;100.00
53011;BME280;42803;55.762;38.084;2023-03-04T04:51:07;97615.34;;;-3.25;100.00
53011;BME280;42803;55.762;38.084;2023-03-04T04:53:37;97618.34;;;-3.21;100.00
53011;BME280;42803;55.762;38.084;2023-03-04T04:56:11;97619.53;;;-3.17;100.00
53011;BME280;42803;55.762;38.084;2023-03-04T04:58:40;97617.59;;;-3.11;100.00
53011;BME280;42803;55.762;38.084;2023-03-04T05:01:10;97619.56;;;-3.08;100.00
53011;BME280;42803;55.762;38.084;2023-03-04T05:03:39;97612.50;;;-3.02;100.00
53011;BME280;42803;55.762;38.084;2023-03-04T05:06:10;97616.88;;;-3.01;100.00
53011;BME280;42803;55.762;38.084;2023-03-04T05:08:41;97610.41;;;-2.98;100.00
53011;BME280;42803;55.762;38.084;2023-03-04T05:11:10;97608.00;;;-2.96;100.00
53011;BME280;42803;55.762;38.084;2023-03-04T05:13:39;97608.31;;;-2.93;100.00
53011;BME280;42803;55.762;38.084;2023-03-04T05:16:09;97606.34;;;-2.87;100.00
53011;BME280;42803;55.762;38.084;2023-03-04T05:18:38;97616.25;;;-2.81;100.00
53011;BME280;42803;55.762;38.084;2023-03-04T05:21:07;97610.25;;;-2.73;100.00
53011;BME280;42803;55.762;38.084;2023-03-04T05:23:38;97613.41;;;-2.67;100.00
53011;BME280;42803;55.762;38.084;2023-03-04T05:26:12;97608.00;;;-2.70;100.00
53011;BME280;42803;55.762;38.084;2023-03-04T05:28:42;97610.97;;;-2.65;100.00
53011;BME280;42803;55.762;38.084;2023-03-04T05:31:11;97612.47;;;-2.59;100.00
53011;BME280;42803;55.762;38.084;2023-03-04T05:33:40;97614.13;;;-2.59;100.00
53011;BME280;42803;55.762;38.084;2023-03-04T05:36:09;97608.69;;;-2.54;100.00
53011;BME280;42803;55.762;38.084;2023-03-04T05:38:38;97609.31;;;-2.48;100.00
53011;BME280;42803;55.762;38.084;2023-03-04T05:41:09;97601.09;;;-2.26;100.00
53011;BME280;42803;55.762;38.084;2023-03-04T05:43:38;97605.09;;;-2.11;100.00
53011;BME280;42803;55.762;38.084;2023-03-04T05:46:11;97597.47;;;-2.19;100.00
53011;BME280;42803;55.762;38.084;2023-03-04T05:48:41;97601.09;;;-2.17;100.00
53011;BME280;42803;55.762;38.084;2023-03-04T05:51:10;97592.81;;;-2.15;100.00
53011;BME280;42803;55.762;38.084;2023-03-04T05:53:40;97594.97;;;-1.92;100.00
53011;BME280;42803;55.762;38.084;2023-03-04T05:56:12;97589.59;;;-1.67;100.00
53011;BME280;42803;55.762;38.084;2023-03-04T05:58:42;97582.94;;;-1.65;100.00
53011;BME280;42803;55.762;38.084;2023-03-04T06:01:12;97580.97;;;-1.59;100.00
53011;BME280;42803;55.762;38.084;2023-03-04T06:03:42;97569.16;;;-1.49;100.00
53011;BME280;42803;55.762;38.084;2023-03-04T06:06:11;97559.34;;;-1.25;100.00
53011;BME280;42803;55.762;38.084;2023-03-04T06:08:40;97561.00;;;-1.07;100.00
53011;BME280;42803;55.762;38.084;2023-03-04T06:11:10;97565.69;;;-1.11;100.00
53011;BME280;42803;55.762;38.084;2023-03-04T06:13:39;97566.06;;;-1.17;100.00
53011;BME280;42803;55.762;38.084;2023-03-04T06:16:08;97560.94;;;-0.69;100.00
53011;BME280;42803;55.762;38.084;2023-03-04T06:18:37;97561.00;;;-0.19;100.00
53011;BME280;42803;55.762;38.084;2023-03-04T06:21:07;97565.72;;;-0.24;100.00
53011;BME280;42803;55.762;38.084;2023-03-04T06:23:36;97558.31;;;-0.21;100.00
53011;BME280;42803;55.762;38.084;2023-03-04T06:26:05;97552.19;;;-0.13;99.01
53011;BME280;42803;55.762;38.084;2023-03-04T06:28:40;97553.31;;;-0.19;98.14
53011;BME280;42803;55.762;38.084;2023-03-04T06:31:09;97549.50;;;-0.14;97.47
53011;BME280;42803;55.762;38.084;2023-03-04T06:33:38;97545.63;;;-0.19;98.27
53011;BME280;42803;55.762;38.084;2023-03-04T06:36:07;97547.63;;;-0.36;98.64
53011;BME280;42803;55.762;38.084;2023-03-04T06:38:36;97543.59;;;-0.13;97.91
53011;BME280;42803;55.762;38.084;2023-03-04T06:41:07;97538.75;;;0.00;97.51
53011;BME280;42803;55.762;38.084;2023-03-04T06:43:36;97539.81;;;0.12;95.96
53011;BME280;42803;55.762;38.084;2023-03-04T06:46:07;97533.88;;;0.64;95.88
53011;BME280;42803;55.762;38.084;2023-03-04T06:48:37;97529.38;;;0.72;92.77
53011;BME280;42803;55.762;38.084;2023-03-04T06:51:07;97523.78;;;0.66;91.92
53011;BME280;42803;55.762;38.084;2023-03-04T06:53:37;97525.03;;;0.30;94.19
53011;BME280;42803;55.762;38.084;2023-03-04T06:56:08;97523.22;;;-0.02;93.59
53011;BME280;42803;55.762;38.084;2023-03-04T06:58:38;97524.34;;;-0.08;94.55
53011;BME280;42803;55.762;38.084;2023-03-04T07:01:17;97524.91;;;0.08;97.33
53011;BME280;42803;55.762;38.084;2023-03-04T07:03:47;97523.88;;;0.27;95.10
53011;BME280;42803;55.762;38.084;2023-03-04T07:06:19;97511.19;;;0.48;93.20
53011;BME280;42803;55.762;38.084;2023-03-04T07:08:48;97515.41;;;0.68;94.86
53011;BME280;42803;55.762;38.084;2023-03-04T07:11:18;97507.69;;;0.68;92.64
53011;BME280;42803;55.762;38.084;2023-03-04T07:13:48;97507.94;;;0.82;92.12
53011;BME280;42803;55.762;38.084;2023-03-04T07:16:21;97499.28;;;1.12;90.47
53011;BME280;42803;55.762;38.084;2023-03-04T07:18:50;97497.09;;;1.06;90.28
53011;BME280;42803;55.762;38.084;2023-03-04T07:21:19;97495.72;;;1.00;89.24
53011;BME280;42803;55.762;38.084;2023-03-04T07:23:48;97494.78;;;0.99;88.83
53011;BME280;42803;55.762;38.084;2023-03-04T07:26:17;97490.69;;;1.01;89.56
53011;BME280;42803;55.762;38.084;2023-03-04T07:28:47;97485.81;;;1.04;88.48
53011;BME280;42803;55.762;38.084;2023-03-04T07:31:21;97490.84;;;0.92;89.69
53011;BME280;42803;55.762;38.084;2023-03-04T07:33:51;97487.09;;;0.99;90.68
53011;BME280;42803;55.762;38.084;2023-03-04T07:36:20;97481.16;;;1.10;88.63
53011;BME280;42803;55.762;38.084;2023-03-04T07:38:49;97473.75;;;1.03;87.78
53011;BME280;42803;55.762;38.084;2023-03-04T07:41:22;97468.91;;;1.18;87.48
53011;BME280;42803;55.762;38.084;2023-03-04T07:43:52;97464.59;;;1.39;86.89
53011;BME280;42803;55.762;38.084;2023-03-04T07:46:23;97458.69;;;1.62;85.91
53011;BME280;42803;55.762;38.084;2023-03-04T07:48:53;97451.63;;;1.81;85.12
53011;BME280;42803;55.762;38.084;2023-03-04T07:51:24;97452.50;;;2.04;83.95
53011;BME280;42803;55.762;38.084;2023-03-04T07:53:56;97447.00;;;1.99;84.88
53011;BME280;42803;55.762;38.084;2023-03-04T07:56:27;97447.75;;;1.98;86.61
53011;BME280;42803;55.762;38.084;2023-03-04T07:58:57;97451.91;;;1.96;85.09
53011;BME280;42803;55.762;38.084;2023-03-04T08:01:29;97441.28;;;2.25;82.89
53011;BME280;42803;55.762;38.084;2023-03-04T08:04:00;97440.31;;;2.13;83.00
53011;BME280;42803;55.762;38.084;2023-03-04T08:06:29;97445.84;;;1.84;82.68
53011;BME280;42803;55.762;38.084;2023-03-04T08:09:02;97443.31;;;1.74;82.91
53011;BME280;42803;55.762;38.084;2023-03-04T08:11:33;97446.28;;;1.90;82.52
53011;BME280;42803;55.762;38.084;2023-03-04T08:14:03;97440.78;;;2.19;83.53
53011;BME280;42803;55.762;38.084;2023-03-04T08:16:33;97436.28;;;2.05;81.90
53011;BME280;42803;55.762;38.084;2023-03-04T08:19:03;97437.44;;;2.32;81.13
53011;BME280;42803;55.762;38.084;2023-03-04T08:21:33;97431.13;;;2.62;82.08
53011;BME280;42803;55.762;38.084;2023-03-04T08:24:04;97416.00;;;2.90;78.80
53011;BME280;42803;55.762;38.084;2023-03-04T08:26:37;97418.38;;;2.87;77.94
53011;BME280;42803;55.762;38.084;2023-03-04T08:29:11;97416.69;;;2.76;76.93
53011;BME280;42803;55.762;38.084;2023-03-04T08:31:43;97413.78;;;2.83;78.49
53011;BME280;42803;55.762;38.084;2023-03-04T08:34:16;97410.66;;;2.87;78.08
53011;BME280;42803;55.762;38.084;2023-03-04T08:36:45;97408.38;;;3.03;76.31
53011;BME280;42803;55.762;38.084;2023-03-04T08:39:16;97404.13;;;2.92;76.03
53011;BME280;42803;55.762;38.084;2023-03-04T08:41:46;97400.38;;;3.24;75.67
53011;BME280;42803;55.762;38.084;2023-03-04T08:44:15;97395.53;;;3.40;74.53
53011;BME280;42803;55.762;38.084;2023-03-04T08:46:45;97397.28;;;3.04;74.71
53011;BME280;42803;55.762;38.084;2023-03-04T08:49:14;97397.50;;;3.07;79.36
53011;BME280;42803;55.762;38.084;2023-03-04T08:51:43;97393.56;;;3.12;75.19
53011;BME280;42803;55.762;38.084;2023-03-04T08:54:12;97381.00;;;3.29;74.05
53011;BME280;42803;55.762;38.084;2023-03-04T08:56:42;97384.34;;;3.28;75.82
53011;BME280;42803;55.762;38.084;2023-03-04T08:59:11;97389.94;;;3.34;73.99
53011;BME280;42803;55.762;38.084;2023-03-04T09:01:40;97382.78;;;3.30;74.17
53011;BME280;42803;55.762;38.084;2023-03-04T09:04:10;97379.09;;;3.26;75.12
53011;BME280;42803;55.762;38.084;2023-03-04T09:06:39;97381.41;;;2.98;77.13
53011;BME280;42803;55.762;38.084;2023-03-04T09:09:08;97386.91;;;2.91;76.41
53011;BME280;42803;55.762;38.084;2023-03-04T09:11:38;97378.72;;;2.73;76.66
53011;BME280;42803;55.762;38.084;2023-03-04T09:14:06;97373.66;;;2.63;78.14
53011;BME280;42803;55.762;38.084;2023-03-04T09:16:36;97368.09;;;2.68;78.72
53011;BME280;42803;55.762;38.084;2023-03-04T09:19:05;97362.03;;;2.91;77.22
53011;BME280;42803;55.762;38.084;2023-03-04T09:21:35;97357.41;;;2.99;76.69
53011;BME280;42803;55.762;38.084;2023-03-04T09:24:05;97350.81;;;2.91;76.51
53011;BME280;42803;55.762;38.084;2023-03-04T09:26:34;97355.28;;;2.93;77.29
53011;BME280;42803;55.762;38.084;2023-03-04T09:29:03;97351.69;;;3.03;76.86
53011;BME280;42803;55.762;38.084;2023-03-04T09:31:33;97344.84;;;3.04;79.25
53011;BME280;42803;55.762;38.084;2023-03-04T09:34:02;97337.34;;;3.32;77.61
53011;BME280;42803;55.762;38.084;2023-03-04T09:36:31;97336.28;;;3.28;76.18
53011;BME280;42803;55.762;38.084;2023-03-04T09:39:02;97325.97;;;3.16;76.71
53011;BME280;42803;55.762;38.084;2023-03-04T09:41:36;97320.38;;;3.22;77.34
53011;BME280;42803;55.762;38.084;2023-03-04T09:44:14;97314.31;;;3.22;77.52
53011;BME280;42803;55.762;38.084;2023-03-04T09:46:47;97305.00;;;3.24;76.43
53011;BME280;42803;55.762;38.084;2023-03-04T09:49:18;97301.69;;;3.13;76.94
53011;BME280;42803;55.762;38.084;2023-03-04T09:52:01;97295.34;;;3.33;75.91
53011;BME280;42803;55.762;38.084;2023-03-04T09:54:55;97298.81;;;3.33;75.69
53011;BME280;42803;55.762;38.084;2023-03-04T09:57:43;97287.69;;;3.09;77.03
53011;BME280;42803;55.762;38.084;2023-03-04T10:00:18;97278.94;;;2.71;77.13
53011;BME280;42803;55.762;38.084;2023-03-04T10:03:13;97292.06;;;2.50;78.31
53011;BME280;42803;55.762;38.084;2023-03-04T10:05:50;97280.91;;;2.38;78.47
53011;BME280;42803;55.762;38.084;2023-03-04T10:08:32;97276.31;;;2.34;78.78
53011;BME280;42803;55.762;38.084;2023-03-04T10:11:10;97273.38;;;2.17;79.41
53011;BME280;42803;55.762;38.084;2023-03-04T10:13:47;97266.69;;;2.19;80.18
53011;BME280;42803;55.762;38.084;2023-03-04T10:16:23;97272.72;;;2.20;84.64
53011;BME280;42803;55.762;38.084;2023-03-04T10:18:56;97257.69;;;2.61;80.91
53011;BME280;42803;55.762;38.084;2023-03-04T10:21:29;97261.22;;;2.87;81.22
53011;BME280;42803;55.762;38.084;2023-03-04T10:24:00;97244.72;;;2.60;79.81
53011;BME280;42803;55.762;38.084;2023-03-04T10:26:35;97244.63;;;2.35;80.04
53011;BME280;42803;55.762;38.084;2023-03-04T10:29:04;97237.09;;;2.50;80.94
53011;BME280;42803;55.762;38.084;2023-03-04T10:31:35;97238.69;;;2.36;82.22
53011;BME280;42803;55.762;38.084;2023-03-04T10:34:05;97228.03;;;2.43;80.92
53011;BME280;42803;55.762;38.084;2023-03-04T10:36:46;97226.31;;;2.79;80.12
53011;BME280;42803;55.762;38.084;2023-03-04T10:39:20;97221.78;;;2.88;77.98
53011;BME280;42803;55.762;38.084;2023-03-04T10:41:57;97216.94;;;2.67;77.98
53011;BME280;42803;55.762;38.084;2023-03-04T10:44:27;97211.59;;;2.53;77.86
53011;BME280;42803;55.762;38.084;2023-03-04T10:46:57;97206.13;;;2.48;78.41
53011;BME280;42803;55.762;38.084;2023-03-04T10:49:27;97206.56;;;2.42;78.26
53011;BME280;42803;55.762;38.084;2023-03-04T10:52:12;97205.81;;;2.08;78.79
53011;BME280;42803;55.762;38.084;2023-03-04T10:54:48;97203.16;;;1.83;79.64
53011;BME280;42803;55.762;38.084;2023-03-04T10:57:23;97196.78;;;1.78;81.00
53011;BME280;42803;55.762;38.084;2023-03-04T10:59:55;97190.63;;;1.88;80.99
53011;BME280;42803;55.762;38.084;2023-03-04T11:02:26;97186.00;;;2.19;80.87
53011;BME280;42803;55.762;38.084;2023-03-04T11:05:05;97179.56;;;2.49;81.54
53011;BME280;42803;55.762;38.084;2023-03-04T11:07:38;97170.91;;;2.60;79.88
53011;BME280;42803;55.762;38.084;2023-03-04T11:10:24;97163.41;;;2.63;79.72
53011;BME280;42803;55.762;38.084;2023-03-04T11:12:59;97163.69;;;2.43;79.16
53011;BME280;42803;55.762;38.084;2023-03-04T11:15:30;97161.28;;;2.33;79.38
53011;BME280;42803;55.762;38.084;2023-03-04T11:18:13;97151.34;;;2.14;79.27
53011;BME280;42803;55.762;38.084;2023-03-04T11:20:44;97149.72;;;1.91;79.18
53011;BME280;42803;55.762;38.084;2023-03-04T11:23:16;97147.00;;;1.78;80.03
53011;BME280;42803;55.762;38.084;2023-03-04T11:25:48;97147.25;;;1.81;79.45
53011;BME280;42803;55.762;38.084;2023-03-04T11:28:21;97138.88;;;1.83;79.68
53011;BME280;42803;55.762;38.084;2023-03-04T11:30:54;97140.97;;;1.77;79.51
53011;BME280;42803;55.762;38.084;2023-03-04T11:33:28;97139.88;;;1.50;79.95
53011;BME280;42803;55.762;38.084;2023-03-04T11:36:16;97144.94;;;1.03;81.37
53011;BME280;42803;55.762;38.084;2023-03-04T11:38:50;97142.50;;;0.71;84.16
53011;BME280;42803;55.762;38.084;2023-03-04T11:41:24;97141.13;;;0.64;87.43
53011;BME280;42803;55.762;38.084;2023-03-04T11:43:59;97137.47;;;0.72;89.69
53011;BME280;42803;55.762;38.084;2023-03-04T11:53:28;97125.66;;;0.75;92.78
53011;BME280;42803;55.762;38.084;2023-03-04T11:56:07;97123.69;;;0.94;92.61
53011;BME280;42803;55.762;38.084;2023-03-04T11:59:03;97115.75;;;0.91;92.73
53011;BME280;42803;55.762;38.084;2023-03-04T12:01:43;97118.28;;;0.79;92.62
53011;BME280;42803;55.762;38.084;2023-03-04T12:04:39;97110.72;;;0.81;92.95
53011;BME280;42803;55.762;38.084;2023-03-04T12:07:27;97102.22;;;0.70;93.55
53011;BME280;42803;55.762;38.084;2023-03-04T12:10:15;97105.31;;;0.66;94.42
53011;BME280;42803;55.762;38.084;2023-03-04T12:13:00;97103.97;;;0.59;95.20
53011;BME280;42803;55.762;38.084;2023-03-04T12:15:39;97097.28;;;0.61;95.94
53011;BME280;42803;55.762;38.084;2023-03-04T12:18:19;97089.09;;;0.55;96.51
53011;BME280;42803;55.762;38.084;2023-03-04T12:21:10;97082.50;;;0.47;97.86
53011;BME280;42803;55.762;38.084;2023-03-04T12:24:02;97087.38;;;0.44;99.22
53011;BME280;42803;55.762;38.084;2023-03-04T12:26:39;97082.09;;;0.31;100.00
53011;BME280;42803;55.762;38.084;2023-03-04T12:29:14;97081.69;;;0.14;100.00
53011;BME280;42803;55.762;38.084;2023-03-04T12:31:51;97080.25;;;-0.04;100.00
53011;BME280;42803;55.762;38.084;2023-03-04T12:37:59;97074.28;;;-0.37;100.00
53011;BME280;42803;55.762;38.084;2023-03-04T12:40:42;97072.69;;;-0.35;100.00
53011;BME280;42803;55.762;38.084;2023-03-04T12:43:30;97068.25;;;-0.37;100.00
53011;BME280;42803;55.762;38.084;2023-03-04T12:46:10;97066.69;;;-0.35;100.00
53011;BME280;42803;55.762;38.084;2023-03-04T12:48:48;97070.69;;;-0.39;100.00
53011;BME280;42803;55.762;38.084;2023-03-04T12:51:29;97063.94;;;-0.48;100.00
53011;BME280;42803;55.762;38.084;2023-03-04T12:54:12;97057.44;;;-0.55;100.00
53011;BME280;42803;55.762;38.084;2023-03-04T12:56:51;97050.28;;;-0.59;100.00
53011;BME280;42803;55.762;38.084;2023-03-04T12:59:24;97052.13;;;-0.68;100.00
53011;BME280;42803;55.762;38.084;2023-03-04T13:02:01;97051.34;;;-0.67;100.00
53011;BME280;42803;55.762;38.084;2023-03-04T13:04:46;97041.88;;;-0.68;100.00
53011;BME280;42803;55.762;38.084;2023-03-04T13:07:30;97040.31;;;-0.66;100.00
53011;BME280;42803;55.762;38.084;2023-03-04T13:10:07;97035.72;;;-0.70;100.00
53011;BME280;42803;55.762;38.084;2023-03-04T13:12:46;97032.91;;;-0.74;100.00
53011;BME280;42803;55.762;38.084;2023-03-04T13:15:30;97027.50;;;-0.66;100.00
53011;BME280;42803;55.762;38.084;2023-03-04T13:18:02;97018.00;;;-0.57;100.00
53011;BME280;42803;55.762;38.084;2023-03-04T13:20:38;97016.16;;;-0.48;100.00
53011;BME280;42803;55.762;38.084;2023-03-04T13:23:23;97010.00;;;-0.50;100.00